createdAt,value
2023-01-31T00:01:31.786Z,2.37
2023-01-31T00:04:19.641Z,2.43
2023-01-31T00:07:07.387Z,2.30
2023-01-31T00:09:53.898Z,2.97
2023-01-31T00:12:40.281Z,2.53
2023-01-31T00:15:26.738Z,2.60
2023-01-31T00:18:13.100Z,2.80
2023-01-31T00:21:06.388Z,2.60
2023-01-31T00:23:53.926Z,2.43
2023-01-31T00:26:40.461Z,2.60
2023-01-31T00:29:26.934Z,2.20
2023-01-31T00:32:13.276Z,2.77
2023-01-31T00:35:00.325Z,2.47
2023-01-31T00:37:47.892Z,2.07
2023-01-31T00:40:34.593Z,2.80
2023-01-31T00:43:21.419Z,2.97
2023-01-31T00:46:08.194Z,3.17
2023-01-31T00:48:56.300Z,2.00
2023-01-31T00:51:44.664Z,2.43
2023-01-31T00:54:32.423Z,2.00
2023-01-31T00:57:19.012Z,2.97
2023-01-31T01:00:06.536Z,2.43
2023-01-31T01:02:53.544Z,2.10
2023-01-31T01:05:40.104Z,2.50
2023-01-31T01:08:26.777Z,2.37
2023-01-31T01:11:16.982Z,2.20
2023-01-31T01:14:04.216Z,2.20
2023-01-31T01:16:50.965Z,2.23
2023-01-31T01:19:37.275Z,2.37
2023-01-31T01:22:23.707Z,2.97
2023-01-31T01:25:11.210Z,2.27
2023-01-31T01:27:59.202Z,2.97
2023-01-31T01:30:45.842Z,2.83
2023-01-31T01:33:33.020Z,2.70
2023-01-31T01:36:22.165Z,2.77
2023-01-31T01:39:10.639Z,2.50
2023-01-31T01:41:57.588Z,2.33
2023-01-31T01:44:52.223Z,2.50
2023-01-31T01:47:41.524Z,2.53
2023-01-31T01:50:34.008Z,2.47
2023-01-31T01:53:23.591Z,2.50
2023-01-31T01:56:14.727Z,2.60
2023-01-31T01:59:06.564Z,1.90
2023-01-31T02:01:57.769Z,1.83
2023-01-31T02:04:47.565Z,2.40
2023-01-31T02:07:34.040Z,2.00
2023-01-31T02:10:27.521Z,1.97
2023-01-31T02:13:15.471Z,2.20
2023-01-31T02:16:02.096Z,2.23
2023-01-31T02:18:50.068Z,2.33
2023-01-31T02:22:02.480Z,2.40
2023-01-31T02:25:40.858Z,1.90
2023-01-31T02:28:58.075Z,2.50
2023-01-31T02:32:05.486Z,2.27
2023-01-31T02:35:00.676Z,2.37
2023-01-31T02:37:55.569Z,1.97
2023-01-31T02:40:48.066Z,2.37
2023-01-31T02:44:05.162Z,2.47
2023-01-31T02:46:58.780Z,2.23
2023-01-31T02:49:49.706Z,2.83
2023-01-31T02:52:45.165Z,1.90
2023-01-31T02:55:54.510Z,2.20
2023-01-31T02:58:43.063Z,2.10
2023-01-31T03:01:33.811Z,1.80
2023-01-31T03:04:20.227Z,2.30
2023-01-31T03:07:09.683Z,1.23
2023-01-31T03:10:07.430Z,1.47
2023-01-31T03:13:03.572Z,2.17
2023-01-31T03:16:19.133Z,2.33
2023-01-31T03:19:13.992Z,1.90
2023-01-31T03:22:05.491Z,2.30
2023-01-31T03:24:53.270Z,2.40
2023-01-31T03:27:43.640Z,1.83
2023-01-31T03:30:37.175Z,2.33
2023-01-31T03:33:26.618Z,2.43
2023-01-31T03:36:21.621Z,1.90
2023-01-31T03:39:17.871Z,3.57
2023-01-31T03:42:09.200Z,1.80
2023-01-31T03:45:03.715Z,1.93
2023-01-31T03:47:51.946Z,2.00
2023-01-31T03:50:42.461Z,1.87
2023-01-31T03:53:33.602Z,2.30
2023-01-31T03:56:26.350Z,2.40
2023-01-31T03:59:17.159Z,1.50
2023-01-31T04:02:08.805Z,2.07
2023-01-31T04:04:59.790Z,1.50
2023-01-31T04:07:46.251Z,2.17
2023-01-31T04:10:32.878Z,2.10
2023-01-31T04:13:19.520Z,1.60
2023-01-31T04:16:06.733Z,1.90
2023-01-31T04:18:56.504Z,2.03
2023-01-31T04:21:42.739Z,1.70
2023-01-31T04:24:29.133Z,2.00
2023-01-31T04:27:15.500Z,2.10
2023-01-31T04:30:01.935Z,2.10
2023-01-31T04:32:48.537Z,1.50
2023-01-31T04:35:36.617Z,2.10
2023-01-31T04:38:23.047Z,1.73
2023-01-31T04:41:09.774Z,1.67
2023-01-31T04:43:56.451Z,2.10
2023-01-31T04:46:42.670Z,1.70
2023-01-31T04:49:28.981Z,1.87
2023-01-31T04:52:16.907Z,2.07
2023-01-31T04:55:03.434Z,1.83
2023-01-31T04:57:50.070Z,2.20
2023-01-31T05:00:37.119Z,1.60
2023-01-31T05:03:23.859Z,1.80
2023-01-31T05:06:10.312Z,2.63
2023-01-31T05:09:01.640Z,2.27
2023-01-31T05:11:48.330Z,2.50
2023-01-31T05:14:34.675Z,2.60
2023-01-31T05:17:26.214Z,1.90
2023-01-31T05:20:13.259Z,1.90
2023-01-31T05:23:00.033Z,2.33
2023-01-31T05:25:51.179Z,2.73
2023-01-31T05:28:37.911Z,2.70
2023-01-31T05:31:25.035Z,2.77
2023-01-31T05:34:15.217Z,2.07
2023-01-31T05:37:02.591Z,3.60
2023-01-31T05:39:48.994Z,3.67
2023-01-31T05:42:36.785Z,3.20
2023-01-31T05:45:24.494Z,2.80
2023-01-31T05:48:11.338Z,3.13
2023-01-31T05:50:57.742Z,2.80
2023-01-31T05:53:44.208Z,4.50
2023-01-31T05:56:30.956Z,5.57
2023-01-31T05:59:18.773Z,3.40
2023-01-31T06:02:05.578Z,2.93
2023-01-31T06:04:51.777Z,2.60
2023-01-31T06:07:39.080Z,2.83
2023-01-31T06:10:25.813Z,2.70
2023-01-31T06:13:12.429Z,2.63
2023-01-31T06:16:00.742Z,3.63
2023-01-31T06:18:47.421Z,4.10
2023-01-31T06:21:33.753Z,5.33
2023-01-31T06:24:20.305Z,4.53
2023-01-31T06:27:06.621Z,4.17
2023-01-31T06:29:52.969Z,4.10
2023-01-31T06:32:40.772Z,2.70
2023-01-31T06:35:27.306Z,3.23
2023-01-31T06:38:13.654Z,3.20
2023-01-31T06:41:00.567Z,3.30
2023-01-31T06:43:46.924Z,3.30
2023-01-31T06:46:33.484Z,3.90
2023-01-31T06:49:21.454Z,3.83
2023-01-31T06:52:08.016Z,3.57
2023-01-31T06:54:54.434Z,3.40
2023-01-31T06:57:48.353Z,3.73
2023-01-31T07:00:34.788Z,3.03
2023-01-31T07:03:21.335Z,4.53
2023-01-31T07:06:10.728Z,3.83
2023-01-31T07:08:57.124Z,4.33
2023-01-31T07:11:43.479Z,3.53
2023-01-31T07:14:30.186Z,3.07
2023-01-31T07:17:16.803Z,4.57
2023-01-31T07:20:03.246Z,4.27
2023-01-31T07:22:57.134Z,3.80
2023-01-31T07:25:43.694Z,4.63
2023-01-31T07:28:30.084Z,4.77
2023-01-31T07:31:16.640Z,4.47
2023-01-31T07:34:03.029Z,3.97
2023-01-31T07:36:49.567Z,4.90
2023-01-31T07:39:37.551Z,4.67
2023-01-31T07:42:24.269Z,4.00
2023-01-31T07:45:33.513Z,5.07
2023-01-31T07:48:23.477Z,4.67
2023-01-31T07:51:10.677Z,4.93
2023-01-31T07:53:58.146Z,4.87
2023-01-31T07:56:45.827Z,4.10
2023-01-31T07:59:32.301Z,4.83
2023-01-31T08:02:48.441Z,4.83
2023-01-31T08:05:35.188Z,4.80
2023-01-31T08:08:21.976Z,4.30
2023-01-31T08:11:08.945Z,4.83
2023-01-31T08:13:57.243Z,4.90
2023-01-31T08:16:44.048Z,6.00
2023-01-31T08:19:30.829Z,5.47
2023-01-31T08:22:17.255Z,5.70
2023-01-31T08:25:03.574Z,5.37
2023-01-31T08:27:49.970Z,6.30
2023-01-31T08:30:41.349Z,6.57
2023-01-31T08:33:28.202Z,8.60
2023-01-31T08:36:18.272Z,6.53
2023-01-31T08:39:05.942Z,6.93
2023-01-31T08:41:52.718Z,5.27
2023-01-31T08:44:39.210Z,5.40
2023-01-31T08:47:27.085Z,5.30
2023-01-31T08:50:25.964Z,5.33
2023-01-31T08:53:14.186Z,4.47
2023-01-31T08:56:01.033Z,4.50
2023-01-31T08:58:47.497Z,4.87
2023-01-31T09:01:35.500Z,4.93
2023-01-31T09:04:23.690Z,5.23
2023-01-31T09:07:10.070Z,5.20
2023-01-31T09:09:56.611Z,5.27
2023-01-31T09:12:43.042Z,5.60
2023-01-31T09:15:29.305Z,6.27
2023-01-31T09:18:15.771Z,6.43
2023-01-31T09:21:07.373Z,4.60
2023-01-31T09:23:57.614Z,6.70
2023-01-31T09:26:44.171Z,6.07
2023-01-31T09:29:30.935Z,6.17
2023-01-31T09:32:17.975Z,5.90
2023-01-31T09:35:04.714Z,5.77
2023-01-31T09:37:52.478Z,5.47
2023-01-31T09:40:41.592Z,5.97
2023-01-31T09:43:32.636Z,6.50
2023-01-31T09:46:22.009Z,5.73
2023-01-31T09:49:14.522Z,6.00
2023-01-31T09:52:04.065Z,5.40
2023-01-31T09:54:51.946Z,5.47
2023-01-31T09:57:46.713Z,6.13
2023-01-31T10:00:36.953Z,4.87
2023-01-31T10:03:37.367Z,5.30
2023-01-31T10:06:27.142Z,5.00
2023-01-31T10:09:20.325Z,5.00
2023-01-31T10:12:15.028Z,5.87
2023-01-31T10:15:06.164Z,5.57
2023-01-31T10:17:58.272Z,5.07
2023-01-31T10:20:50.288Z,5.97
2023-01-31T10:23:40.951Z,5.23
2023-01-31T10:26:30.731Z,5.30
2023-01-31T10:29:27.392Z,5.47
2023-01-31T10:32:22.335Z,5.53
2023-01-31T10:35:17.013Z,5.20
2023-01-31T10:38:12.256Z,4.27
2023-01-31T10:41:07.896Z,5.57
2023-01-31T10:44:01.429Z,4.87
2023-01-31T10:46:50.475Z,5.20
2023-01-31T10:49:37.129Z,5.27
2023-01-31T10:52:39.346Z,5.00
2023-01-31T10:55:38.811Z,5.00
2023-01-31T10:58:25.526Z,6.10
2023-01-31T11:01:14.575Z,5.60
2023-01-31T11:04:03.060Z,5.97
2023-01-31T11:06:49.741Z,5.60
2023-01-31T11:09:40.777Z,5.80
2023-01-31T11:12:43.126Z,5.30
2023-01-31T11:15:36.255Z,4.33
2023-01-31T11:18:32.843Z,4.33
2023-01-31T11:21:24.507Z,5.33
2023-01-31T11:24:19.336Z,5.73
2023-01-31T11:27:08.615Z,5.63
2023-01-31T11:29:59.992Z,5.03
2023-01-31T11:32:47.669Z,6.17
2023-01-31T11:35:35.516Z,5.20
2023-01-31T11:38:24.726Z,5.40
2023-01-31T11:41:33.325Z,5.40
2023-01-31T11:44:22.513Z,5.23
2023-01-31T11:47:14.045Z,5.73
2023-01-31T11:50:01.778Z,5.23
2023-01-31T11:52:54.812Z,5.93
2023-01-31T11:55:45.419Z,5.30
2023-01-31T11:58:35.300Z,4.70
2023-01-31T12:01:25.325Z,5.67
2023-01-31T12:04:18.473Z,5.30
2023-01-31T12:07:07.401Z,4.63
2023-01-31T12:09:54.635Z,5.23
2023-01-31T12:12:47.927Z,5.27
2023-01-31T12:15:34.483Z,5.50
2023-01-31T12:18:31.084Z,4.70
2023-01-31T12:21:20.218Z,5.40
2023-01-31T12:24:17.415Z,5.33
2023-01-31T12:27:12.981Z,5.03
2023-01-31T12:30:22.232Z,5.00
2023-01-31T12:33:32.842Z,5.43
2023-01-31T12:36:29.504Z,5.50
2023-01-31T12:39:28.073Z,5.57
2023-01-31T12:42:38.570Z,4.73
2023-01-31T12:45:53.560Z,5.37
2023-01-31T12:49:07.669Z,4.87
2023-01-31T12:52:00.914Z,5.33
2023-01-31T12:55:02.435Z,5.33
2023-01-31T12:57:56.565Z,5.17
2023-01-31T13:00:52.287Z,5.83
2023-01-31T13:04:04.711Z,6.10
2023-01-31T13:06:54.521Z,5.00
2023-01-31T13:09:41.437Z,5.50
2023-01-31T13:12:31.428Z,6.57
2023-01-31T13:15:28.871Z,6.90
2023-01-31T13:18:16.594Z,8.67
2023-01-31T13:21:08.808Z,8.30
2023-01-31T13:24:00.283Z,5.20
2023-01-31T13:26:52.467Z,5.27
2023-01-31T13:29:44.397Z,5.30
2023-01-31T13:32:35.422Z,5.37
2023-01-31T13:35:26.025Z,4.70
2023-01-31T13:38:18.916Z,4.93
2023-01-31T13:41:08.019Z,4.67
2023-01-31T13:43:54.670Z,4.67
2023-01-31T13:46:52.112Z,4.97
2023-01-31T13:49:41.578Z,4.77
2023-01-31T13:52:34.256Z,4.77
2023-01-31T13:55:26.251Z,4.70
2023-01-31T13:58:20.005Z,4.40
2023-01-31T14:01:09.991Z,4.40
2023-01-31T14:04:24.149Z,3.80
2023-01-31T14:07:22.319Z,4.50
2023-01-31T14:10:29.682Z,4.83
2023-01-31T14:13:39.831Z,3.70
2023-01-31T14:16:40.421Z,3.40
2023-01-31T14:20:03.318Z,3.83
2023-01-31T14:23:23.461Z,3.57
2023-01-31T14:26:37.799Z,4.23
2023-01-31T14:29:27.390Z,3.90
2023-01-31T14:32:23.323Z,3.97
2023-01-31T14:35:30.873Z,4.23
2023-01-31T14:38:25.476Z,4.23
2023-01-31T14:41:19.882Z,4.60
2023-01-31T14:44:18.028Z,4.40
2023-01-31T14:47:28.709Z,4.20
2023-01-31T14:50:35.742Z,4.30
2023-01-31T14:53:38.462Z,4.53
2023-01-31T14:56:48.526Z,5.03
2023-01-31T14:59:43.412Z,4.57
2023-01-31T15:02:54.291Z,4.97
2023-01-31T15:05:45.329Z,5.17
2023-01-31T15:08:37.973Z,5.30
2023-01-31T15:11:42.855Z,4.40
2023-01-31T15:14:41.327Z,5.30
2023-01-31T15:17:36.690Z,5.40
2023-01-31T15:20:41.620Z,5.53
2023-01-31T15:23:30.946Z,4.80
2023-01-31T15:26:18.153Z,4.57
2023-01-31T15:29:05.659Z,5.37
2023-01-31T15:31:56.909Z,5.80
2023-01-31T15:34:49.867Z,5.13
2023-01-31T15:37:37.904Z,5.60
2023-01-31T15:40:28.737Z,5.17
2023-01-31T15:43:22.657Z,4.70
2023-01-31T15:46:21.779Z,4.23
2023-01-31T15:49:38.043Z,5.27
2023-01-31T15:52:27.647Z,3.90
2023-01-31T15:55:15.986Z,4.10
2023-01-31T15:58:04.080Z,3.73
2023-01-31T16:00:52.663Z,3.80
2023-01-31T16:03:43.204Z,3.23
2023-01-31T16:06:34.660Z,4.55
2023-01-31T16:09:27.320Z,3.07
2023-01-31T16:12:15.388Z,2.63
2023-01-31T16:15:06.889Z,2.67
2023-01-31T16:17:54.557Z,2.77
2023-01-31T16:20:46.736Z,2.63
2023-01-31T16:23:36.427Z,3.40
2023-01-31T16:26:26.244Z,3.30
2023-01-31T16:29:17.807Z,3.53
2023-01-31T16:32:04.309Z,3.60
2023-01-31T16:34:59.344Z,3.70
2023-01-31T16:37:46.280Z,3.10
2023-01-31T16:40:37.898Z,3.17
2023-01-31T16:43:27.480Z,4.63
2023-01-31T16:46:21.729Z,3.60
2023-01-31T16:49:22.010Z,3.13
2023-01-31T16:52:25.503Z,3.03
2023-01-31T16:55:15.737Z,2.97
2023-01-31T16:58:04.362Z,2.70
2023-01-31T17:00:52.821Z,2.37
2023-01-31T17:03:39.559Z,1.93
2023-01-31T17:06:26.046Z,2.37
2023-01-31T17:09:19.412Z,2.00
2023-01-31T17:12:06.613Z,1.87
2023-01-31T17:14:59.084Z,2.30
2023-01-31T17:17:48.030Z,1.80
2023-01-31T17:20:34.470Z,1.80
2023-01-31T17:23:21.179Z,1.50
2023-01-31T17:26:11.062Z,1.67
2023-01-31T17:29:02.062Z,1.53
2023-01-31T17:31:50.228Z,2.17
2023-01-31T17:34:36.636Z,1.43
2023-01-31T17:37:31.049Z,2.10
2023-01-31T17:40:19.245Z,1.87
2023-01-31T17:43:06.648Z,1.90
2023-01-31T17:45:53.265Z,1.33
2023-01-31T17:48:41.129Z,2.00
2023-01-31T17:51:27.952Z,1.97
2023-01-31T17:54:14.942Z,2.50
2023-01-31T17:57:01.621Z,2.30
2023-01-31T17:59:48.102Z,2.17
2023-01-31T18:02:34.832Z,3.30
2023-01-31T18:05:33.548Z,2.40
2023-01-31T18:08:24.524Z,2.50
2023-01-31T18:11:13.433Z,2.17
2023-01-31T18:14:00.088Z,1.60
2023-01-31T18:16:46.501Z,3.00
2023-01-31T18:19:33.009Z,2.60
2023-01-31T18:22:20.702Z,2.50
2023-01-31T18:25:08.072Z,2.03
2023-01-31T18:27:54.849Z,2.10
2023-01-31T18:30:41.260Z,2.27
2023-01-31T18:33:27.692Z,2.40
2023-01-31T18:36:16.291Z,2.53
2023-01-31T18:39:04.181Z,2.23
2023-01-31T18:41:50.745Z,2.43
2023-01-31T18:44:37.602Z,2.10
2023-01-31T18:47:24.074Z,2.10
2023-01-31T18:50:12.179Z,2.30
2023-01-31T18:52:58.774Z,2.50
2023-01-31T18:55:46.575Z,2.50
2023-01-31T18:58:34.292Z,3.07
2023-01-31T19:01:22.487Z,2.50
2023-01-31T19:04:09.557Z,2.00
2023-01-31T19:06:56.327Z,2.40
2023-01-31T19:09:42.679Z,2.03
2023-01-31T19:12:30.286Z,2.20
2023-01-31T19:15:17.121Z,1.73
2023-01-31T19:18:03.453Z,2.40
2023-01-31T19:20:49.945Z,2.23
2023-01-31T19:23:37.911Z,1.97
2023-01-31T19:26:25.272Z,2.30
2023-01-31T19:29:15.641Z,2.43
2023-01-31T19:32:02.197Z,2.70
2023-01-31T19:34:49.172Z,3.00
2023-01-31T19:37:35.595Z,2.90
2023-01-31T19:40:22.087Z,2.50
2023-01-31T19:43:08.761Z,2.40
2023-01-31T19:45:57.244Z,2.30
2023-01-31T19:48:44.077Z,2.43
2023-01-31T19:51:31.032Z,3.40
2023-01-31T19:54:19.779Z,2.60
2023-01-31T19:57:06.199Z,2.10
2023-01-31T19:59:52.599Z,2.77
2023-01-31T20:02:43.135Z,2.17
2023-01-31T20:05:29.796Z,2.57
2023-01-31T20:08:16.241Z,2.83
2023-01-31T20:11:03.495Z,2.47
2023-01-31T20:13:51.251Z,2.50
2023-01-31T20:16:38.146Z,2.53
2023-01-31T20:19:26.391Z,2.47
2023-01-31T20:22:15.175Z,2.47
2023-01-31T20:25:01.486Z,2.37
2023-01-31T20:27:47.870Z,2.50
2023-01-31T20:30:34.969Z,2.53
2023-01-31T20:33:21.971Z,2.60
2023-01-31T20:36:10.442Z,2.60
2023-01-31T20:38:56.911Z,2.03
2023-01-31T20:41:43.374Z,2.33
2023-01-31T20:44:29.587Z,2.83
2023-01-31T20:47:16.112Z,2.77
2023-01-31T20:50:02.456Z,2.10
2023-01-31T20:52:51.366Z,2.23
2023-01-31T20:55:37.795Z,3.07
2023-01-31T20:58:25.030Z,2.17
2023-01-31T21:01:12.868Z,2.97
2023-01-31T21:03:59.409Z,2.47
2023-01-31T21:06:45.826Z,2.10
2023-01-31T21:09:33.530Z,2.23
2023-01-31T21:12:19.864Z,2.57
2023-01-31T21:15:07.456Z,2.20
2023-01-31T21:17:54.165Z,2.17
2023-01-31T21:20:40.391Z,2.30
2023-01-31T21:23:26.869Z,2.70
2023-01-31T21:26:14.821Z,2.67
2023-01-31T21:29:02.361Z,2.83
2023-01-31T21:31:49.614Z,2.33
2023-01-31T21:34:36.405Z,1.97
2023-01-31T21:37:22.781Z,2.20
2023-01-31T21:40:10.581Z,2.60
2023-01-31T21:42:58.608Z,2.57
2023-01-31T21:45:45.061Z,2.07
2023-01-31T21:48:32.039Z,2.13
2023-01-31T21:51:22.176Z,2.33
2023-01-31T21:54:09.142Z,2.60
2023-01-31T21:56:55.721Z,2.47
2023-01-31T21:59:45.494Z,2.60
2023-01-31T22:02:32.504Z,2.70
2023-01-31T22:05:19.504Z,3.00
2023-01-31T22:08:06.227Z,2.10
2023-01-31T22:11:00.047Z,2.50
2023-01-31T22:13:51.347Z,2.57
2023-01-31T22:16:40.213Z,2.00
2023-01-31T22:19:26.729Z,2.70
2023-01-31T22:22:13.181Z,2.97
2023-01-31T22:24:59.446Z,2.20
2023-01-31T22:27:45.900Z,2.40
2023-01-31T22:30:32.669Z,2.40
2023-01-31T22:33:20.887Z,2.63
2023-01-31T22:36:08.813Z,2.83
2023-01-31T22:38:56.057Z,2.83
2023-01-31T22:41:44.616Z,2.87
2023-01-31T22:44:31.073Z,2.40
2023-01-31T22:47:17.564Z,2.70
2023-01-31T22:50:06.065Z,2.23
2023-01-31T22:52:52.301Z,2.30
2023-01-31T22:55:39.910Z,2.60
2023-01-31T22:58:26.476Z,2.60
2023-01-31T23:01:14.959Z,2.30
2023-01-31T23:04:02.976Z,2.73
2023-01-31T23:06:51.091Z,2.83
2023-01-31T23:09:37.949Z,2.73
2023-01-31T23:12:24.363Z,2.47
2023-01-31T23:15:12.096Z,2.43
2023-01-31T23:17:59.010Z,2.47
2023-01-31T23:20:45.594Z,2.67
2023-01-31T23:23:33.289Z,2.50
2023-01-31T23:26:19.892Z,3.00
2023-01-31T23:29:06.494Z,3.87
2023-01-31T23:31:53.338Z,2.63
2023-01-31T23:34:40.200Z,2.20
2023-01-31T23:37:27.067Z,3.03
2023-01-31T23:40:15.000Z,2.30
2023-01-31T23:43:01.681Z,2.90
2023-01-31T23:45:48.154Z,2.53
2023-01-31T23:48:35.703Z,2.83
2023-01-31T23:51:22.126Z,2.80
2023-01-31T23:54:08.523Z,2.50
2023-01-31T23:56:56.073Z,2.17
2023-01-31T23:59:42.492Z,2.60
